sensor_id;sensor_type;location;lat;lon;timestamp;pressure;altitude;pressure_sealevel;temperature;humidity
75192;BME280;63771;52.580;9.734;2023-07-02T00:01:43;100101.53;;;16.24;91.84
75192;BME280;63771;52.580;9.734;2023-07-02T00:04:10;100106.56;;;16.23;91.63
75192;BME280;63771;52.580;9.734;2023-07-02T00:06:38;100106.44;;;16.20;91.44
75192;BME280;63771;52.580;9.734;2023-07-02T00:09:12;100102.59;;;16.11;91.03
75192;BME280;63771;52.580;9.734;2023-07-02T00:11:39;100116.91;;;16.06;91.09
75192;BME280;63771;52.580;9.734;2023-07-02T00:14:05;100111.25;;;15.96;91.45
75192;BME280;63771;52.580;9.734;2023-07-02T00:16:31;100111.81;;;15.90;91.43
75192;BME280;63771;52.580;9.734;2023-07-02T00:18:56;100113.44;;;15.88;91.38
75192;BME280;63771;52.580;9.734;2023-07-02T00:21:22;100115.03;;;15.86;91.00
75192;BME280;63771;52.580;9.734;2023-07-02T00:23:53;100117.59;;;15.86;91.39
75192;BME280;63771;52.580;9.734;2023-07-02T00:26:18;100116.72;;;15.85;91.14
75192;BME280;63771;52.580;9.734;2023-07-02T00:28:44;100121.50;;;15.78;91.62
75192;BME280;63771;52.580;9.734;2023-07-02T00:31:09;100124.72;;;15.74;91.36
75192;BME280;63771;52.580;9.734;2023-07-02T00:33:34;100114.59;;;15.77;91.27
75192;BME280;63771;52.580;9.734;2023-07-02T00:36:00;100116.34;;;15.78;91.53
75192;BME280;63771;52.580;9.734;2023-07-02T00:38:25;100112.91;;;15.77;91.38
75192;BME280;63771;52.580;9.734;2023-07-02T00:40:54;100118.69;;;15.73;91.66
75192;BME280;63771;52.580;9.734;2023-07-02T00:43:19;100109.22;;;15.72;91.07
75192;BME280;63771;52.580;9.734;2023-07-02T00:45:45;100110.91;;;15.72;91.36
75192;BME280;63771;52.580;9.734;2023-07-02T00:48:11;100102.19;;;15.70;91.60
75192;BME280;63771;52.580;9.734;2023-07-02T00:50:36;100095.28;;;15.69;91.34
75192;BME280;63771;52.580;9.734;2023-07-02T00:53:02;100094.47;;;15.70;90.81
75192;BME280;63771;52.580;9.734;2023-07-02T00:55:27;100097.22;;;15.73;90.77
75192;BME280;63771;52.580;9.734;2023-07-02T00:57:52;100092.09;;;15.73;90.49
75192;BME280;63771;52.580;9.734;2023-07-02T01:00:18;100089.34;;;15.70;90.72
75192;BME280;63771;52.580;9.734;2023-07-02T01:02:53;100086.63;;;15.67;90.48
75192;BME280;63771;52.580;9.734;2023-07-02T01:05:22;100090.91;;;15.66;90.36
75192;BME280;63771;52.580;9.734;2023-07-02T01:07:48;100096.16;;;15.69;89.78
75192;BME280;63771;52.580;9.734;2023-07-02T01:10:13;100097.88;;;15.69;89.72
75192;BME280;63771;52.580;9.734;2023-07-02T01:12:39;100103.66;;;15.64;90.15
75192;BME280;63771;52.580;9.734;2023-07-02T01:15:06;100101.69;;;15.60;90.04
75192;BME280;63771;52.580;9.734;2023-07-02T01:17:33;100101.88;;;15.63;89.65
75192;BME280;63771;52.580;9.734;2023-07-02T01:20:08;100097.34;;;15.59;90.24
75192;BME280;63771;52.580;9.734;2023-07-02T01:22:34;100097.84;;;15.52;90.59
75192;BME280;63771;52.580;9.734;2023-07-02T01:25:00;100098.41;;;15.47;90.84
75192;BME280;63771;52.580;9.734;2023-07-02T01:27:29;100088.69;;;15.41;91.19
75192;BME280;63771;52.580;9.734;2023-07-02T01:29:55;100097.22;;;15.40;90.95
75192;BME280;63771;52.580;9.734;2023-07-02T01:32:21;100093.75;;;15.39;91.24
75192;BME280;63771;52.580;9.734;2023-07-02T01:34:46;100091.59;;;15.31;91.53
75192;BME280;63771;52.580;9.734;2023-07-02T01:37:17;100093.19;;;15.29;91.59
75192;BME280;63771;52.580;9.734;2023-07-02T01:39:43;100085.31;;;15.26;91.33
75192;BME280;63771;52.580;9.734;2023-07-02T01:42:13;100096.56;;;15.28;91.76
75192;BME280;63771;52.580;9.734;2023-07-02T01:44:41;100104.25;;;15.28;91.38
75192;BME280;63771;52.580;9.734;2023-07-02T01:47:06;100101.38;;;15.22;92.15
75192;BME280;63771;52.580;9.734;2023-07-02T01:49:32;100099.44;;;15.18;92.69
75192;BME280;63771;52.580;9.734;2023-07-02T01:51:57;100109.72;;;15.18;92.61
75192;BME280;63771;52.580;9.734;2023-07-02T01:54:25;100103.13;;;15.23;91.87
75192;BME280;63771;52.580;9.734;2023-07-02T01:56:53;100106.59;;;15.23;92.05
75192;BME280;63771;52.580;9.734;2023-07-02T01:59:18;100101.63;;;15.26;92.06
75192;BME280;63771;52.580;9.734;2023-07-02T02:01:44;100104.19;;;15.26;92.21
75192;BME280;63771;52.580;9.734;2023-07-02T02:04:10;100098.19;;;15.26;92.66
75192;BME280;63771;52.580;9.734;2023-07-02T02:06:36;100102.56;;;15.28;92.01
75192;BME280;63771;52.580;9.734;2023-07-02T02:09:02;100095.03;;;15.31;91.59
75192;BME280;63771;52.580;9.734;2023-07-02T02:11:33;100104.75;;;15.37;91.10
75192;BME280;63771;52.580;9.734;2023-07-02T02:13:59;100102.38;;;15.40;91.41
75192;BME280;63771;52.580;9.734;2023-07-02T02:16:26;100102.13;;;15.35;92.00
75192;BME280;63771;52.580;9.734;2023-07-02T02:18:52;100111.34;;;15.32;92.25
75192;BME280;63771;52.580;9.734;2023-07-02T02:21:18;100103.81;;;15.35;91.99
75192;BME280;63771;52.580;9.734;2023-07-02T02:23:44;100106.38;;;15.35;91.71
75192;BME280;63771;52.580;9.734;2023-07-02T02:26:10;100116.81;;;15.38;91.95
75192;BME280;63771;52.580;9.734;2023-07-02T02:28:36;100121.69;;;15.33;92.90
75192;BME280;63771;52.580;9.734;2023-07-02T02:31:01;100128.72;;;15.36;92.07
75192;BME280;63771;52.580;9.734;2023-07-02T02:33:27;100122.13;;;15.41;91.81
75192;BME280;63771;52.580;9.734;2023-07-02T02:35:52;100133.22;;;15.40;92.33
75192;BME280;63771;52.580;9.734;2023-07-02T02:38:18;100153.44;;;15.34;92.93
75192;BME280;63771;52.580;9.734;2023-07-02T02:40:43;100156.41;;;15.25;94.51
75192;BME280;63771;52.580;9.734;2023-07-02T02:43:08;100160.16;;;15.16;94.35
75192;BME280;63771;52.580;9.734;2023-07-02T02:45:34;100165.94;;;15.11;95.13
75192;BME280;63771;52.580;9.734;2023-07-02T02:47:59;100165.59;;;15.05;95.26
75192;BME280;63771;52.580;9.734;2023-07-02T02:50:24;100161.72;;;14.97;94.42
75192;BME280;63771;52.580;9.734;2023-07-02T02:52:50;100157.38;;;14.96;95.11
75192;BME280;63771;52.580;9.734;2023-07-02T02:55:15;100155.63;;;14.95;95.33
75192;BME280;63771;52.580;9.734;2023-07-02T02:57:40;100168.78;;;15.01;95.29
75192;BME280;63771;52.580;9.734;2023-07-02T03:00:06;100159.47;;;15.03;94.96
75192;BME280;63771;52.580;9.734;2023-07-02T03:02:37;100153.44;;;15.03;95.34
75192;BME280;63771;52.580;9.734;2023-07-02T03:05:02;100146.81;;;15.06;95.06
75192;BME280;63771;52.580;9.734;2023-07-02T03:07:29;100142.72;;;15.10;94.80
75192;BME280;63771;52.580;9.734;2023-07-02T03:09:55;100139.09;;;15.06;94.55
75192;BME280;63771;52.580;9.734;2023-07-02T03:12:20;100128.81;;;15.06;94.71
75192;BME280;63771;52.580;9.734;2023-07-02T03:14:46;100114.28;;;15.07;94.41
75192;BME280;63771;52.580;9.734;2023-07-02T03:17:13;100123.19;;;15.13;93.69
75192;BME280;63771;52.580;9.734;2023-07-02T03:19:38;100122.69;;;15.19;93.88
75192;BME280;63771;52.580;9.734;2023-07-02T03:22:04;100125.13;;;15.18;94.46
75192;BME280;63771;52.580;9.734;2023-07-02T03:24:29;100132.84;;;15.18;94.74
75192;BME280;63771;52.580;9.734;2023-07-02T03:26:54;100132.78;;;15.16;94.09
75192;BME280;63771;52.580;9.734;2023-07-02T03:29:20;100131.00;;;15.15;94.60
75192;BME280;63771;52.580;9.734;2023-07-02T03:31:45;100130.28;;;15.18;94.96
75192;BME280;63771;52.580;9.734;2023-07-02T03:34:11;100131.00;;;15.15;95.12
75192;BME280;63771;52.580;9.734;2023-07-02T03:36:37;100131.00;;;15.15;95.00
75192;BME280;63771;52.580;9.734;2023-07-02T03:39:03;100128.34;;;15.13;95.26
75192;BME280;63771;52.580;9.734;2023-07-02T03:41:29;100130.22;;;15.16;94.55
75192;BME280;63771;52.580;9.734;2023-07-02T03:43:54;100132.03;;;15.19;94.88
75192;BME280;63771;52.580;9.734;2023-07-02T03:46:20;100127.88;;;15.21;94.84
75192;BME280;63771;52.580;9.734;2023-07-02T03:48:45;100130.72;;;15.25;94.71
75192;BME280;63771;52.580;9.734;2023-07-02T03:51:10;100128.28;;;15.28;93.86
75192;BME280;63771;52.580;9.734;2023-07-02T03:53:39;100125.81;;;15.30;93.67
75192;BME280;63771;52.580;9.734;2023-07-02T03:56:04;100136.00;;;15.28;94.44
75192;BME280;63771;52.580;9.734;2023-07-02T03:58:30;100138.66;;;15.30;94.23
75192;BME280;63771;52.580;9.734;2023-07-02T04:00:55;100136.09;;;15.30;94.09
75192;BME280;63771;52.580;9.734;2023-07-02T04:03:20;100141.25;;;15.30;94.43
75192;BME280;63771;52.580;9.734;2023-07-02T04:05:46;100137.84;;;15.31;94.30
75192;BME280;63771;52.580;9.734;2023-07-02T04:08:11;100137.28;;;15.36;94.10
75192;BME280;63771;52.580;9.734;2023-07-02T04:10:36;100143.31;;;15.37;93.15
75192;BME280;63771;52.580;9.734;2023-07-02T04:13:02;100143.50;;;15.40;93.60
75192;BME280;63771;52.580;9.734;2023-07-02T04:15:27;100151.28;;;15.42;93.23
75192;BME280;63771;52.580;9.734;2023-07-02T04:17:53;100145.25;;;15.41;93.48
75192;BME280;63771;52.580;9.734;2023-07-02T04:20:19;100139.88;;;15.36;93.44
75192;BME280;63771;52.580;9.734;2023-07-02T04:22:45;100153.59;;;15.37;93.26
75192;BME280;63771;52.580;9.734;2023-07-02T04:25:11;100146.78;;;15.37;93.43
75192;BME280;63771;52.580;9.734;2023-07-02T04:27:40;100143.72;;;15.45;93.10
75192;BME280;63771;52.580;9.734;2023-07-02T04:30:06;100138.81;;;15.49;92.39
75192;BME280;63771;52.580;9.734;2023-07-02T04:32:33;100144.28;;;15.55;92.27
75192;BME280;63771;52.580;9.734;2023-07-02T04:34:59;100134.16;;;15.58;92.39
75192;BME280;63771;52.580;9.734;2023-07-02T04:37:24;100137.69;;;15.60;92.11
75192;BME280;63771;52.580;9.734;2023-07-02T04:39:49;100144.63;;;15.61;93.00
75192;BME280;63771;52.580;9.734;2023-07-02T04:42:15;100137.91;;;15.63;92.77
75192;BME280;63771;52.580;9.734;2023-07-02T04:44:40;100135.50;;;15.67;92.51
75192;BME280;63771;52.580;9.734;2023-07-02T04:47:09;100149.53;;;15.73;92.57
75192;BME280;63771;52.580;9.734;2023-07-02T04:49:34;100151.13;;;15.71;93.58
75192;BME280;63771;52.580;9.734;2023-07-02T04:51:59;100157.41;;;15.76;92.56
75192;BME280;63771;52.580;9.734;2023-07-02T04:54:25;100155.88;;;15.80;93.05
75192;BME280;63771;52.580;9.734;2023-07-02T04:56:50;100141.44;;;15.82;92.29
75192;BME280;63771;52.580;9.734;2023-07-02T04:59:16;100144.88;;;15.82;92.58
75192;BME280;63771;52.580;9.734;2023-07-02T05:01:41;100148.56;;;15.87;92.95
75192;BME280;63771;52.580;9.734;2023-07-02T05:04:09;100152.66;;;15.84;92.77
75192;BME280;63771;52.580;9.734;2023-07-02T05:06:35;100162.31;;;15.88;92.06
75192;BME280;63771;52.580;9.734;2023-07-02T05:09:00;100157.19;;;15.88;92.21
75192;BME280;63771;52.580;9.734;2023-07-02T05:11:25;100163.44;;;15.93;91.97
75192;BME280;63771;52.580;9.734;2023-07-02T05:13:51;100160.75;;;15.91;91.08
75192;BME280;63771;52.580;9.734;2023-07-02T05:16:16;100164.91;;;15.88;91.07
75192;BME280;63771;52.580;9.734;2023-07-02T05:18:41;100164.72;;;15.85;91.06
75192;BME280;63771;52.580;9.734;2023-07-02T05:21:07;100177.59;;;15.85;90.17
75192;BME280;63771;52.580;9.734;2023-07-02T05:23:32;100169.88;;;15.85;90.15
75192;BME280;63771;52.580;9.734;2023-07-02T05:25:57;100180.03;;;15.82;90.91
75192;BME280;63771;52.580;9.734;2023-07-02T05:28:24;100171.31;;;15.80;91.66
75192;BME280;63771;52.580;9.734;2023-07-02T05:30:50;100181.59;;;15.80;89.93
75192;BME280;63771;52.580;9.734;2023-07-02T05:33:15;100179.66;;;15.76;90.05
75192;BME280;63771;52.580;9.734;2023-07-02T05:35:41;100172.94;;;15.78;89.59
75192;BME280;63771;52.580;9.734;2023-07-02T05:38:06;100172.84;;;15.76;89.57
75192;BME280;63771;52.580;9.734;2023-07-02T05:40:32;100168.44;;;15.74;87.96
75192;BME280;63771;52.580;9.734;2023-07-02T05:42:57;100178.09;;;15.78;88.57
75192;BME280;63771;52.580;9.734;2023-07-02T05:45:22;100172.38;;;15.83;87.97
75192;BME280;63771;52.580;9.734;2023-07-02T05:47:49;100171.94;;;15.92;86.40
75192;BME280;63771;52.580;9.734;2023-07-02T05:50:14;100173.06;;;15.97;86.81
75192;BME280;63771;52.580;9.734;2023-07-02T05:52:40;100181.69;;;15.98;85.08
75192;BME280;63771;52.580;9.734;2023-07-02T05:55:07;100184.34;;;15.99;84.31
75192;BME280;63771;52.580;9.734;2023-07-02T05:57:38;100183.34;;;15.97;84.20
75192;BME280;63771;52.580;9.734;2023-07-02T06:00:04;100183.22;;;15.94;83.24
75192;BME280;63771;52.580;9.734;2023-07-02T06:02:31;100180.72;;;15.96;82.43
75192;BME280;63771;52.580;9.734;2023-07-02T06:04:56;100189.41;;;15.98;82.40
75192;BME280;63771;52.580;9.734;2023-07-02T06:07:22;100199.78;;;15.99;83.58
75192;BME280;63771;52.580;9.734;2023-07-02T06:09:48;100191.41;;;16.03;83.13
75192;BME280;63771;52.580;9.734;2023-07-02T06:12:13;100195.09;;;16.08;83.65
75192;BME280;63771;52.580;9.734;2023-07-02T06:14:38;100198.00;;;16.14;82.51
75192;BME280;63771;52.580;9.734;2023-07-02T06:17:04;100193.84;;;16.18;82.00
75192;BME280;63771;52.580;9.734;2023-07-02T06:19:31;100194.78;;;16.18;81.13
75192;BME280;63771;52.580;9.734;2023-07-02T06:21:57;100197.47;;;16.22;81.15
75192;BME280;63771;52.580;9.734;2023-07-02T06:24:22;100199.41;;;16.26;79.29
75192;BME280;63771;52.580;9.734;2023-07-02T06:26:47;100198.91;;;16.33;78.81
75192;BME280;63771;52.580;9.734;2023-07-02T06:29:13;100194.06;;;16.39;79.18
75192;BME280;63771;52.580;9.734;2023-07-02T06:31:38;100193.91;;;16.36;78.38
75192;BME280;63771;52.580;9.734;2023-07-02T06:34:03;100194.06;;;16.39;77.78
75192;BME280;63771;52.580;9.734;2023-07-02T06:36:29;100192.53;;;16.42;76.96
75192;BME280;63771;52.580;9.734;2023-07-02T06:38:54;100207.25;;;16.45;78.14
75192;BME280;63771;52.580;9.734;2023-07-02T06:41:20;100199.59;;;16.47;77.68
75192;BME280;63771;52.580;9.734;2023-07-02T06:43:45;100205.69;;;16.49;77.38
75192;BME280;63771;52.580;9.734;2023-07-02T06:46:12;100214.47;;;16.52;75.20
75192;BME280;63771;52.580;9.734;2023-07-02T06:48:37;100220.44;;;16.51;74.49
75192;BME280;63771;52.580;9.734;2023-07-02T06:51:03;100218.88;;;16.55;74.26
75192;BME280;63771;52.580;9.734;2023-07-02T06:53:28;100219.03;;;16.58;72.74
75192;BME280;63771;52.580;9.734;2023-07-02T06:55:53;100212.25;;;16.60;74.28
75192;BME280;63771;52.580;9.734;2023-07-02T06:58:19;100208.44;;;16.69;75.37
75192;BME280;63771;52.580;9.734;2023-07-02T07:00:45;100231.19;;;16.77;74.45
75192;BME280;63771;52.580;9.734;2023-07-02T07:03:10;100234.88;;;16.82;69.54
75192;BME280;63771;52.580;9.734;2023-07-02T07:05:35;100240.91;;;16.82;69.72
75192;BME280;63771;52.580;9.734;2023-07-02T07:08:01;100211.75;;;16.83;70.55
75192;BME280;63771;52.580;9.734;2023-07-02T07:10:26;100231.78;;;16.89;70.32
75192;BME280;63771;52.580;9.734;2023-07-02T07:12:52;100243.13;;;16.92;72.42
75192;BME280;63771;52.580;9.734;2023-07-02T07:15:17;100219.28;;;16.97;67.38
75192;BME280;63771;52.580;9.734;2023-07-02T07:17:43;100241.06;;;17.03;66.59
75192;BME280;63771;52.580;9.734;2023-07-02T07:20:08;100239.50;;;17.07;67.35
75192;BME280;63771;52.580;9.734;2023-07-02T07:22:34;100243.53;;;17.02;67.11
75192;BME280;63771;52.580;9.734;2023-07-02T07:24:59;100248.69;;;17.02;67.40
75192;BME280;63771;52.580;9.734;2023-07-02T07:27:25;100251.50;;;17.06;68.09
75192;BME280;63771;52.580;9.734;2023-07-02T07:29:50;100243.63;;;17.03;66.51
75192;BME280;63771;52.580;9.734;2023-07-02T07:32:15;100251.66;;;17.09;67.53
75192;BME280;63771;52.580;9.734;2023-07-02T07:34:41;100250.19;;;17.14;65.84
75192;BME280;63771;52.580;9.734;2023-07-02T07:37:07;100245.47;;;17.24;64.51
75192;BME280;63771;52.580;9.734;2023-07-02T07:39:32;100257.69;;;17.28;61.89
75192;BME280;63771;52.580;9.734;2023-07-02T07:41:57;100256.78;;;17.27;62.50
75192;BME280;63771;52.580;9.734;2023-07-02T07:44:23;100257.84;;;17.31;62.09
75192;BME280;63771;52.580;9.734;2023-07-02T07:46:48;100261.44;;;17.34;60.88
75192;BME280;63771;52.580;9.734;2023-07-02T07:49:14;100259.22;;;17.42;61.37
75192;BME280;63771;52.580;9.734;2023-07-02T07:51:39;100255.09;;;17.45;60.64
75192;BME280;63771;52.580;9.734;2023-07-02T07:54:04;100264.75;;;17.50;58.21
75192;BME280;63771;52.580;9.734;2023-07-02T07:56:30;100260.31;;;17.47;61.41
75192;BME280;63771;52.580;9.734;2023-07-02T07:58:55;100267.19;;;17.46;62.28
75192;BME280;63771;52.580;9.734;2023-07-02T08:01:21;100255.97;;;17.46;63.12
75192;BME280;63771;52.580;9.734;2023-07-02T08:03:46;100271.28;;;17.43;61.37
75192;BME280;63771;52.580;9.734;2023-07-02T08:06:11;100280.38;;;17.35;59.72
75192;BME280;63771;52.580;9.734;2023-07-02T08:08:37;100276.81;;;17.33;60.74
75192;BME280;63771;52.580;9.734;2023-07-02T08:11:02;100279.72;;;17.39;59.67
75192;BME280;63771;52.580;9.734;2023-07-02T08:13:28;100274.75;;;17.43;58.15
75192;BME280;63771;52.580;9.734;2023-07-02T08:15:53;100286.25;;;17.32;56.96
75192;BME280;63771;52.580;9.734;2023-07-02T08:18:18;100290.41;;;17.29;59.44
75192;BME280;63771;52.580;9.734;2023-07-02T08:20:44;100298.81;;;17.25;60.38
75192;BME280;63771;52.580;9.734;2023-07-02T08:23:09;100298.50;;;17.18;58.40
75192;BME280;63771;52.580;9.734;2023-07-02T08:25:34;100284.28;;;17.27;58.54
75192;BME280;63771;52.580;9.734;2023-07-02T08:28:00;100283.63;;;17.31;58.62
75192;BME280;63771;52.580;9.734;2023-07-02T08:30:25;100292.41;;;17.34;60.07
75192;BME280;63771;52.580;9.734;2023-07-02T08:32:50;100299.38;;;17.37;58.56
75192;BME280;63771;52.580;9.734;2023-07-02T08:35:16;100290.69;;;17.35;59.34
75192;BME280;63771;52.580;9.734;2023-07-02T08:37:41;100300.34;;;17.39;59.88
75192;BME280;63771;52.580;9.734;2023-07-02T08:40:15;100290.56;;;17.50;58.88
75192;BME280;63771;52.580;9.734;2023-07-02T08:42:40;100298.91;;;17.63;60.42
75192;BME280;63771;52.580;9.734;2023-07-02T08:45:06;100303.22;;;17.81;56.59
75192;BME280;63771;52.580;9.734;2023-07-02T08:47:32;100312.66;;;17.80;55.68
75192;BME280;63771;52.580;9.734;2023-07-02T08:49:57;100294.50;;;17.79;55.58
75192;BME280;63771;52.580;9.734;2023-07-02T08:52:22;100316.03;;;17.79;57.14
75192;BME280;63771;52.580;9.734;2023-07-02T08:54:48;100327.81;;;17.74;57.34
75192;BME280;63771;52.580;9.734;2023-07-02T08:57:13;100322.13;;;17.63;56.68
75192;BME280;63771;52.580;9.734;2023-07-02T08:59:38;100328.19;;;17.64;56.86
75192;BME280;63771;52.580;9.734;2023-07-02T09:02:04;100320.59;;;17.67;58.27
75192;BME280;63771;52.580;9.734;2023-07-02T09:04:29;100325.97;;;17.71;56.96
75192;BME280;63771;52.580;9.734;2023-07-02T09:09:30;100323.09;;;17.65;57.92
75192;BME280;63771;52.580;9.734;2023-07-02T09:11:55;100335.19;;;17.66;58.87
75192;BME280;63771;52.580;9.734;2023-07-02T09:14:31;100340.34;;;17.66;59.95
75192;BME280;63771;52.580;9.734;2023-07-02T09:17:04;100336.38;;;17.73;58.45
75192;BME280;63771;52.580;9.734;2023-07-02T09:19:30;100321.28;;;17.81;58.13
75192;BME280;63771;52.580;9.734;2023-07-02T09:21:57;100332.16;;;17.93;57.80
75192;BME280;63771;52.580;9.734;2023-07-02T09:24:25;100324.22;;;18.08;59.10
75192;BME280;63771;52.580;9.734;2023-07-02T09:26:52;100335.47;;;18.28;55.35
75192;BME280;63771;52.580;9.734;2023-07-02T09:29:31;100336.13;;;18.23;55.81
75192;BME280;63771;52.580;9.734;2023-07-02T09:31:59;100330.53;;;18.14;53.50
75192;BME280;63771;52.580;9.734;2023-07-02T09:34:29;100337.81;;;18.04;54.78
75192;BME280;63771;52.580;9.734;2023-07-02T09:36:55;100335.91;;;17.99;56.03
75192;BME280;63771;52.580;9.734;2023-07-02T09:39:26;100346.31;;;18.01;57.38
75192;BME280;63771;52.580;9.734;2023-07-02T09:41:52;100349.63;;;17.98;56.81
75192;BME280;63771;52.580;9.734;2023-07-02T09:44:19;100350.66;;;18.02;57.68
75192;BME280;63771;52.580;9.734;2023-07-02T09:47:06;100329.88;;;18.18;58.73
75192;BME280;63771;52.580;9.734;2023-07-02T09:49:41;100323.75;;;18.36;56.98
75192;BME280;63771;52.580;9.734;2023-07-02T09:52:08;100332.75;;;18.44;55.75
75192;BME280;63771;52.580;9.734;2023-07-02T09:54:34;100333.56;;;18.43;52.07
75192;BME280;63771;52.580;9.734;2023-07-02T09:57:00;100323.97;;;18.40;52.34
75192;BME280;63771;52.580;9.734;2023-07-02T09:59:27;100338.31;;;18.34;52.82
75192;BME280;63771;52.580;9.734;2023-07-02T10:01:52;100337.63;;;18.38;54.92
75192;BME280;63771;52.580;9.734;2023-07-02T10:04:19;100327.94;;;18.53;53.78
75192;BME280;63771;52.580;9.734;2023-07-02T10:06:49;100334.00;;;18.73;53.92
75192;BME280;63771;52.580;9.734;2023-07-02T10:09:16;100338.75;;;18.83;53.34
75192;BME280;63771;52.580;9.734;2023-07-02T10:11:42;100333.41;;;18.99;53.87
75192;BME280;63771;52.580;9.734;2023-07-02T10:14:08;100340.00;;;19.12;51.72
75192;BME280;63771;52.580;9.734;2023-07-02T10:16:33;100333.41;;;19.20;53.07
75192;BME280;63771;52.580;9.734;2023-07-02T10:19:11;100344.03;;;19.26;51.51
75192;BME280;63771;52.580;9.734;2023-07-02T10:21:37;100339.78;;;19.28;53.76
75192;BME280;63771;52.580;9.734;2023-07-02T10:24:15;100352.16;;;19.36;52.38
75192;BME280;63771;52.580;9.734;2023-07-02T10:26:59;100338.47;;;19.38;51.18
75192;BME280;63771;52.580;9.734;2023-07-02T10:29:25;100336.31;;;19.28;50.80
75192;BME280;63771;52.580;9.734;2023-07-02T10:31:52;100346.28;;;19.19;50.65
75192;BME280;63771;52.580;9.734;2023-07-02T10:34:47;100342.38;;;19.08;50.18
75192;BME280;63771;52.580;9.734;2023-07-02T10:37:14;100356.06;;;19.05;50.76
75192;BME280;63771;52.580;9.734;2023-07-02T10:39:39;100357.84;;;19.06;52.41
75192;BME280;63771;52.580;9.734;2023-07-02T10:42:09;100359.72;;;19.10;53.09
75192;BME280;63771;52.580;9.734;2023-07-02T10:44:46;100352.09;;;19.13;51.97
75192;BME280;63771;52.580;9.734;2023-07-02T10:47:12;100342.56;;;19.12;48.65
75192;BME280;63771;52.580;9.734;2023-07-02T10:49:37;100362.19;;;19.07;51.54
75192;BME280;63771;52.580;9.734;2023-07-02T10:52:03;100350.44;;;19.15;48.54
75192;BME280;63771;52.580;9.734;2023-07-02T10:54:46;100364.59;;;19.23;49.13
75192;BME280;63771;52.580;9.734;2023-07-02T10:57:18;100359.56;;;19.26;49.85
75192;BME280;63771;52.580;9.734;2023-07-02T10:59:47;100362.25;;;19.29;50.81
75192;BME280;63771;52.580;9.734;2023-07-02T11:02:15;100372.00;;;19.37;50.36
75192;BME280;63771;52.580;9.734;2023-07-02T11:04:41;100353.22;;;19.41;50.93
75192;BME280;63771;52.580;9.734;2023-07-02T11:07:06;100369.25;;;19.53;50.12
75192;BME280;63771;52.580;9.734;2023-07-02T11:09:32;100355.75;;;19.60;50.95
75192;BME280;63771;52.580;9.734;2023-07-02T11:11:59;100371.13;;;19.57;50.45
75192;BME280;63771;52.580;9.734;2023-07-02T11:16:57;100380.34;;;19.50;49.99
75192;BME280;63771;52.580;9.734;2023-07-02T11:19:22;100359.78;;;19.53;50.85
75192;BME280;63771;52.580;9.734;2023-07-02T11:21:52;100368.00;;;19.64;50.22
75192;BME280;63771;52.580;9.734;2023-07-02T11:24:30;100372.63;;;19.73;48.86
75192;BME280;63771;52.580;9.734;2023-07-02T11:26:57;100378.78;;;19.75;48.92
75192;BME280;63771;52.580;9.734;2023-07-02T11:29:24;100382.38;;;19.78;48.99
75192;BME280;63771;52.580;9.734;2023-07-02T11:31:50;100372.72;;;19.74;47.62
75192;BME280;63771;52.580;9.734;2023-07-02T11:34:17;100377.91;;;19.74;47.90
75192;BME280;63771;52.580;9.734;2023-07-02T11:36:43;100372.19;;;19.83;49.11
75192;BME280;63771;52.580;9.734;2023-07-02T11:39:09;100374.25;;;19.92;50.57
75192;BME280;63771;52.580;9.734;2023-07-02T11:41:38;100382.63;;;19.85;46.36
75192;BME280;63771;52.580;9.734;2023-07-02T11:44:03;100387.56;;;19.78;47.58
75192;BME280;63771;52.580;9.734;2023-07-02T11:46:29;100383.53;;;19.64;48.01
75192;BME280;63771;52.580;9.734;2023-07-02T11:48:54;100396.13;;;19.56;49.54
75192;BME280;63771;52.580;9.734;2023-07-02T11:51:21;100394.69;;;19.42;48.05
75192;BME280;63771;52.580;9.734;2023-07-02T11:53:46;100396.38;;;19.42;48.90
75192;BME280;63771;52.580;9.734;2023-07-02T11:56:12;100404.03;;;19.39;48.75
75192;BME280;63771;52.580;9.734;2023-07-02T11:58:41;100397.09;;;19.38;51.07
75192;BME280;63771;52.580;9.734;2023-07-02T12:01:07;100399.28;;;19.28;50.81
75192;BME280;63771;52.580;9.734;2023-07-02T12:03:33;100385.91;;;19.39;49.94
75192;BME280;63771;52.580;9.734;2023-07-02T12:05:58;100386.03;;;19.42;50.68
75192;BME280;63771;52.580;9.734;2023-07-02T12:08:23;100394.84;;;19.47;49.97
75192;BME280;63771;52.580;9.734;2023-07-02T12:10:49;100394.13;;;19.49;48.34
75192;BME280;63771;52.580;9.734;2023-07-02T12:13:14;100383.53;;;19.43;46.29
75192;BME280;63771;52.580;9.734;2023-07-02T12:15:40;100388.69;;;19.43;47.33
75192;BME280;63771;52.580;9.734;2023-07-02T12:18:06;100410.09;;;19.39;48.45
75192;BME280;63771;52.580;9.734;2023-07-02T12:20:31;100402.03;;;19.32;47.72
75192;BME280;63771;52.580;9.734;2023-07-02T12:22:56;100402.47;;;19.21;47.30
75192;BME280;63771;52.580;9.734;2023-07-02T12:25:22;100402.72;;;19.27;48.73
75192;BME280;63771;52.580;9.734;2023-07-02T12:27:47;100418.91;;;19.23;48.31
75192;BME280;63771;52.580;9.734;2023-07-02T12:30:14;100407.63;;;19.21;49.11
75192;BME280;63771;52.580;9.734;2023-07-02T12:32:42;100404.22;;;19.22;48.49
75192;BME280;63771;52.580;9.734;2023-07-02T12:35:08;100410.28;;;19.23;48.00
75192;BME280;63771;52.580;9.734;2023-07-02T12:37:33;100434.19;;;19.38;48.00
75192;BME280;63771;52.580;9.734;2023-07-02T12:39:58;100416.28;;;19.43;48.42
75192;BME280;63771;52.580;9.734;2023-07-02T12:42:24;100430.16;;;19.45;48.26
75192;BME280;63771;52.580;9.734;2023-07-02T12:44:49;100421.75;;;19.50;48.01
75192;BME280;63771;52.580;9.734;2023-07-02T12:47:14;100438.06;;;19.48;46.28
75192;BME280;63771;52.580;9.734;2023-07-02T12:49:40;100434.41;;;19.43;47.48
75192;BME280;63771;52.580;9.734;2023-07-02T12:52:05;100434.13;;;19.37;47.62